createdAt,value
2023-10-29T00:02:21.938Z,17.38
2023-10-29T00:04:50.115Z,17.42
2023-10-29T00:07:19.545Z,17.38
2023-10-29T00:09:47.542Z,17.46
2023-10-29T00:12:15.564Z,17.32
2023-10-29T00:14:44.017Z,16.96
2023-10-29T00:17:12.103Z,17.07
2023-10-29T00:19:40.453Z,16.95
2023-10-29T00:22:08.466Z,16.97
2023-10-29T00:24:37.879Z,16.98
2023-10-29T00:27:06.533Z,16.93
2023-10-29T00:29:34.594Z,16.77
2023-10-29T00:32:02.621Z,16.67
2023-10-29T00:34:30.632Z,16.82
2023-10-29T00:36:58.584Z,16.88
2023-10-29T00:39:27.095Z,16.72
2023-10-29T00:41:55.737Z,16.70
2023-10-29T00:44:24.031Z,16.53
2023-10-29T00:46:52.276Z,16.07
2023-10-29T00:49:20.269Z,16.03
2023-10-29T00:51:48.696Z,15.95
2023-10-29T00:54:17.169Z,15.67
2023-10-29T00:56:45.564Z,15.71
2023-10-29T00:59:15.892Z,15.66
2023-10-29T01:01:43.977Z,15.46
2023-10-29T01:04:12.019Z,15.32
2023-10-29T01:06:42.012Z,15.08
2023-10-29T01:09:10.657Z,14.96
2023-10-29T01:11:39.658Z,14.80
2023-10-29T01:14:08.710Z,14.59
2023-10-29T01:16:38.145Z,14.73
2023-10-29T01:19:06.228Z,14.84
2023-10-29T01:21:34.392Z,14.66
2023-10-29T01:24:03.656Z,14.56
2023-10-29T01:26:32.810Z,14.52
2023-10-29T01:29:00.923Z,14.64
2023-10-29T01:31:30.078Z,14.82
2023-10-29T01:33:59.552Z,15.10
2023-10-29T01:36:27.634Z,15.29
2023-10-29T01:38:55.749Z,15.36
2023-10-29T01:41:25.766Z,15.35
2023-10-29T01:43:53.811Z,15.44
2023-10-29T01:46:21.847Z,15.45
2023-10-29T01:48:49.910Z,15.46
2023-10-29T01:51:19.243Z,15.58
2023-10-29T01:53:47.321Z,15.74
2023-10-29T01:56:15.865Z,15.80
2023-10-29T01:58:43.869Z,15.83
2023-10-29T02:01:12.715Z,15.64
2023-10-29T02:03:40.984Z,15.29
2023-10-29T02:06:18.021Z,15.58
2023-10-29T02:08:47.585Z,15.54
2023-10-29T02:11:15.721Z,15.51
2023-10-29T02:13:44.209Z,15.43
2023-10-29T02:16:12.265Z,15.36
2023-10-29T02:18:40.395Z,15.41
2023-10-29T02:21:08.392Z,15.35
2023-10-29T02:23:37.863Z,15.17
2023-10-29T02:26:05.876Z,14.94
2023-10-29T02:28:34.345Z,14.85
2023-10-29T02:31:02.343Z,14.63
2023-10-29T02:33:31.746Z,14.30
2023-10-29T02:36:00.102Z,14.13
2023-10-29T02:38:28.172Z,13.96
2023-10-29T02:40:57.566Z,13.78
2023-10-29T02:43:25.547Z,13.58
2023-10-29T02:45:53.523Z,13.36
2023-10-29T02:48:22.245Z,13.29
2023-10-29T02:50:50.539Z,13.56
2023-10-29T02:53:18.506Z,13.52
2023-10-29T02:55:46.625Z,13.33
2023-10-29T02:58:16.077Z,13.40
2023-10-29T03:00:44.118Z,13.73
2023-10-29T03:03:12.359Z,13.78
2023-10-29T03:05:50.537Z,13.87
2023-10-29T03:08:24.713Z,14.01
2023-10-29T03:10:52.821Z,14.12
2023-10-29T03:13:22.656Z,13.85
2023-10-29T03:15:51.107Z,13.95
2023-10-29T03:18:19.251Z,13.98
2023-10-29T03:20:47.389Z,14.15
2023-10-29T03:23:15.563Z,14.26
2023-10-29T03:25:46.186Z,14.26
2023-10-29T03:28:14.705Z,14.04
2023-10-29T03:30:44.259Z,13.99
2023-10-29T03:33:12.316Z,14.05
2023-10-29T03:35:40.458Z,13.89
2023-10-29T03:38:09.072Z,13.40
2023-10-29T03:40:38.236Z,13.03
2023-10-29T03:43:06.418Z,12.84
2023-10-29T03:45:34.615Z,12.53
2023-10-29T03:48:04.233Z,12.97
2023-10-29T03:50:32.282Z,13.06
2023-10-29T03:53:00.304Z,13.16
2023-10-29T03:55:28.366Z,13.36
2023-10-29T03:57:56.378Z,13.54
2023-10-29T04:00:25.124Z,13.66
2023-10-29T04:02:53.232Z,13.92
2023-10-29T04:05:22.713Z,14.07
2023-10-29T04:07:50.891Z,14.19
2023-10-29T04:10:18.970Z,14.14
2023-10-29T04:12:47.006Z,14.22
2023-10-29T04:15:15.047Z,14.14
2023-10-29T04:17:43.091Z,14.18
2023-10-29T04:20:11.634Z,14.22
2023-10-29T04:22:41.022Z,14.13
2023-10-29T04:25:09.503Z,14.00
2023-10-29T04:27:37.537Z,13.93
2023-10-29T04:30:06.422Z,14.05
2023-10-29T04:32:34.789Z,13.88
2023-10-29T04:35:05.327Z,13.43
2023-10-29T04:37:33.418Z,13.24
2023-10-29T04:40:02.896Z,13.19
2023-10-29T04:42:31.087Z,13.25
2023-10-29T04:44:59.189Z,13.10
2023-10-29T04:47:27.516Z,12.99
2023-10-29T04:49:55.601Z,12.97
2023-10-29T04:52:23.637Z,12.95
2023-10-29T04:54:51.681Z,12.85
2023-10-29T04:57:22.533Z,12.98
2023-10-29T04:59:50.838Z,12.91
2023-10-29T05:02:19.178Z,13.01
2023-10-29T05:04:47.440Z,13.21
2023-10-29T05:07:15.605Z,13.01
2023-10-29T05:09:43.820Z,13.14
2023-10-29T05:12:12.155Z,13.19
2023-10-29T05:14:41.978Z,13.30
2023-10-29T05:17:11.684Z,13.56
2023-10-29T05:19:40.862Z,13.83
2023-10-29T05:22:08.930Z,13.86
2023-10-29T05:24:36.976Z,14.06
2023-10-29T05:27:05.589Z,14.23
2023-10-29T05:29:33.811Z,14.66
2023-10-29T05:32:03.590Z,15.02
2023-10-29T05:34:31.607Z,15.48
2023-10-29T05:37:01.166Z,15.47
2023-10-29T05:39:29.478Z,15.90
2023-10-29T05:41:57.677Z,16.32
2023-10-29T05:44:25.793Z,16.56
2023-10-29T05:46:53.922Z,16.78
2023-10-29T05:49:23.647Z,17.20
2023-10-29T05:51:52.231Z,17.56
2023-10-29T05:54:20.658Z,17.79
2023-10-29T05:56:48.865Z,17.78
2023-10-29T05:59:16.986Z,18.09
2023-10-29T06:01:45.044Z,18.07
2023-10-29T06:04:13.488Z,18.18
2023-10-29T06:06:42.997Z,18.55
2023-10-29T06:09:21.302Z,18.46
2023-10-29T06:11:54.132Z,18.46
2023-10-29T06:14:24.261Z,18.38
2023-10-29T06:17:03.425Z,18.36
2023-10-29T06:19:35.045Z,18.38
2023-10-29T06:22:06.757Z,18.20
2023-10-29T06:24:34.924Z,18.10
2023-10-29T06:27:03.785Z,18.61
2023-10-29T06:29:32.074Z,18.56
2023-10-29T06:32:00.155Z,19.16
2023-10-29T06:34:28.147Z,19.59
2023-10-29T06:36:56.114Z,19.23
2023-10-29T06:39:25.495Z,19.07
2023-10-29T06:41:53.991Z,19.85
2023-10-29T06:44:22.070Z,19.88
2023-10-29T06:46:50.066Z,19.77
2023-10-29T06:49:18.174Z,20.06
2023-10-29T06:51:46.427Z,19.88
2023-10-29T06:54:14.642Z,19.84
2023-10-29T06:56:44.129Z,20.60
2023-10-29T06:59:12.862Z,20.85
2023-10-29T07:01:41.466Z,21.18
2023-10-29T07:04:09.627Z,21.15
2023-10-29T07:06:37.752Z,21.35
2023-10-29T07:09:05.852Z,21.46
2023-10-29T07:11:34.392Z,21.21
2023-10-29T07:14:04.416Z,20.94
2023-10-29T07:16:32.543Z,20.80
2023-10-29T07:19:00.697Z,20.79
2023-10-29T07:21:30.755Z,20.63
2023-10-29T07:23:59.035Z,19.99
2023-10-29T07:26:27.287Z,20.14
2023-10-29T07:28:55.290Z,20.16
2023-10-29T07:31:24.701Z,21.02
2023-10-29T07:33:53.383Z,21.55
2023-10-29T07:36:22.013Z,21.41
2023-10-29T07:38:50.290Z,20.70
2023-10-29T07:41:20.558Z,21.13
2023-10-29T07:43:49.157Z,21.16
2023-10-29T07:46:17.356Z,21.45
2023-10-29T07:48:48.362Z,22.11
2023-10-29T07:51:16.372Z,22.17
2023-10-29T07:53:44.700Z,21.91
2023-10-29T07:56:14.903Z,21.68
2023-10-29T07:58:43.272Z,22.32
2023-10-29T08:01:14.513Z,22.38
2023-10-29T08:03:43.126Z,22.85
2023-10-29T08:06:14.274Z,23.07
2023-10-29T08:08:42.622Z,22.84
2023-10-29T08:11:19.649Z,23.38
2023-10-29T08:13:48.505Z,23.72
2023-10-29T08:16:17.229Z,23.91
2023-10-29T08:18:45.455Z,24.18
2023-10-29T08:21:18.777Z,24.15
2023-10-29T08:23:47.049Z,23.89
2023-10-29T08:26:15.309Z,23.67
2023-10-29T08:28:43.468Z,23.47
2023-10-29T08:31:14.135Z,23.25
2023-10-29T08:33:42.293Z,23.71
2023-10-29T08:36:12.081Z,23.95
2023-10-29T08:38:41.547Z,24.23
2023-10-29T08:41:16.326Z,24.40
2023-10-29T08:43:45.655Z,24.32
2023-10-29T08:46:16.708Z,24.42
2023-10-29T08:48:44.989Z,24.42
2023-10-29T08:51:18.479Z,24.62
2023-10-29T08:53:48.040Z,24.51
2023-10-29T08:56:16.809Z,24.82
2023-10-29T08:58:45.060Z,24.87
2023-10-29T09:01:13.914Z,25.15
2023-10-29T09:03:42.239Z,24.91
2023-10-29T09:06:10.559Z,24.57
2023-10-29T09:08:39.277Z,25.24
2023-10-29T09:11:09.060Z,25.16
2023-10-29T09:13:38.249Z,25.13
2023-10-29T09:16:07.199Z,25.46
2023-10-29T09:18:35.289Z,25.19
2023-10-29T09:21:03.973Z,25.78
2023-10-29T09:23:33.304Z,25.61
2023-10-29T09:26:01.624Z,25.22
2023-10-29T09:28:31.398Z,25.39
2023-10-29T09:30:59.422Z,25.58
2023-10-29T09:33:27.406Z,25.23
2023-10-29T09:35:55.540Z,25.63
2023-10-29T09:38:23.515Z,25.94
2023-10-29T09:40:55.065Z,26.42
2023-10-29T09:43:28.404Z,26.03
2023-10-29T09:45:59.333Z,25.89
2023-10-29T09:48:45.861Z,26.36
2023-10-29T09:51:14.284Z,26.67
2023-10-29T09:53:42.393Z,26.43
2023-10-29T09:56:11.350Z,26.76
2023-10-29T09:58:40.052Z,26.50
2023-10-29T10:01:10.003Z,26.17
2023-10-29T10:03:38.688Z,26.25
2023-10-29T10:06:08.888Z,26.33
2023-10-29T10:08:37.101Z,26.55
2023-10-29T10:11:05.504Z,26.92
2023-10-29T10:13:39.141Z,27.39
2023-10-29T10:16:13.292Z,27.13
2023-10-29T10:18:54.770Z,27.39
2023-10-29T10:21:24.445Z,27.23
2023-10-29T10:23:54.439Z,27.44
2023-10-29T10:26:31.926Z,27.69
2023-10-29T10:29:01.454Z,27.67
2023-10-29T10:31:32.828Z,27.93
2023-10-29T10:34:15.170Z,28.64
2023-10-29T10:36:43.967Z,28.68
2023-10-29T10:39:12.382Z,28.59
2023-10-29T10:41:43.690Z,29.00
2023-10-29T10:44:13.294Z,28.84
2023-10-29T10:46:49.016Z,28.70
2023-10-29T10:49:18.598Z,28.37
2023-10-29T10:51:48.250Z,28.00
2023-10-29T10:54:19.893Z,28.63
2023-10-29T10:56:48.943Z,28.61
2023-10-29T10:59:17.465Z,28.46
2023-10-29T11:01:47.022Z,28.50
2023-10-29T11:04:16.197Z,28.67
2023-10-29T11:06:45.420Z,28.86
2023-10-29T11:09:15.145Z,28.93
2023-10-29T11:11:48.279Z,28.98
2023-10-29T11:14:18.392Z,28.54
2023-10-29T11:16:50.129Z,28.52
2023-10-29T11:19:47.367Z,28.62
2023-10-29T11:22:28.722Z,28.55
2023-10-29T11:25:39.326Z,28.00
2023-10-29T11:28:10.247Z,28.25
2023-10-29T11:30:39.245Z,28.32
2023-10-29T11:33:23.113Z,28.35
2023-10-29T11:35:51.604Z,28.75
2023-10-29T11:38:32.043Z,28.25
2023-10-29T11:41:00.768Z,28.47
2023-10-29T11:43:28.975Z,28.44
2023-10-29T11:46:01.805Z,28.30
2023-10-29T11:48:35.155Z,28.16
2023-10-29T11:51:27.596Z,27.91
2023-10-29T11:53:57.401Z,28.34
2023-10-29T11:56:29.453Z,28.97
2023-10-29T11:59:09.192Z,29.22
2023-10-29T12:01:40.272Z,29.29
2023-10-29T12:04:11.723Z,29.08
2023-10-29T12:06:41.274Z,28.88
2023-10-29T12:09:20.008Z,28.90
2023-10-29T12:11:50.304Z,29.29
2023-10-29T12:14:41.144Z,28.93
2023-10-29T12:17:09.845Z,28.43
2023-10-29T12:19:42.237Z,28.61
2023-10-29T12:22:18.439Z,28.73
2023-10-29T12:24:47.727Z,28.39
2023-10-29T12:27:16.621Z,28.23
2023-10-29T12:29:44.700Z,28.17
2023-10-29T12:32:23.838Z,28.12
2023-10-29T12:34:54.522Z,28.39
2023-10-29T12:37:25.641Z,27.73
2023-10-29T12:39:57.736Z,27.98
2023-10-29T12:42:52.854Z,28.18
2023-10-29T12:45:27.646Z,27.89
2023-10-29T12:48:16.133Z,28.25
2023-10-29T12:50:51.042Z,27.98
2023-10-29T12:53:23.539Z,28.29
2023-10-29T12:55:52.113Z,27.98
2023-10-29T12:58:20.727Z,28.37
2023-10-29T13:00:48.864Z,28.40
2023-10-29T13:03:16.942Z,28.27
2023-10-29T13:05:45.146Z,28.18
2023-10-29T13:08:15.552Z,28.05
2023-10-29T13:10:47.129Z,28.20
2023-10-29T13:13:16.763Z,27.95
2023-10-29T13:15:46.365Z,28.08
2023-10-29T13:18:15.964Z,28.42
2023-10-29T13:20:44.150Z,28.16
2023-10-29T13:23:14.885Z,27.96
2023-10-29T13:25:44.290Z,27.55
2023-10-29T13:28:12.508Z,27.57
2023-10-29T13:30:40.692Z,27.46
2023-10-29T13:33:09.371Z,27.57
2023-10-29T13:35:40.834Z,27.46
2023-10-29T13:38:09.681Z,27.24
2023-10-29T13:40:39.582Z,27.11
2023-10-29T13:43:09.108Z,26.97
2023-10-29T13:45:38.567Z,26.99
2023-10-29T13:48:08.617Z,26.70
2023-10-29T13:50:41.045Z,26.62
2023-10-29T13:53:09.046Z,26.26
2023-10-29T13:55:37.107Z,26.26
2023-10-29T13:58:05.464Z,26.13
2023-10-29T14:00:35.445Z,26.24
2023-10-29T14:03:04.944Z,26.20
2023-10-29T14:05:33.451Z,26.08
2023-10-29T14:08:01.476Z,26.02
2023-10-29T14:10:29.674Z,25.90
2023-10-29T14:13:00.129Z,25.76
2023-10-29T14:15:28.631Z,25.87
2023-10-29T14:17:59.037Z,25.99
2023-10-29T14:20:27.227Z,25.90
2023-10-29T14:22:55.549Z,25.82
2023-10-29T14:25:23.705Z,25.80
2023-10-29T14:27:52.052Z,25.68
2023-10-29T14:30:20.268Z,25.57
2023-10-29T14:32:48.385Z,25.66
2023-10-29T14:35:18.209Z,25.65
2023-10-29T14:37:46.274Z,25.55
2023-10-29T14:40:14.570Z,25.48
2023-10-29T14:42:45.490Z,25.39
2023-10-29T14:45:13.963Z,25.28
2023-10-29T14:47:42.384Z,25.32
2023-10-29T14:50:11.425Z,25.13
2023-10-29T14:52:41.622Z,25.01
2023-10-29T14:55:11.206Z,25.02
2023-10-29T14:57:39.562Z,24.97
2023-10-29T15:00:11.894Z,24.89
2023-10-29T15:02:39.998Z,24.80
2023-10-29T15:05:09.061Z,24.64
2023-10-29T15:07:37.813Z,24.45
2023-10-29T15:10:08.555Z,24.38
2023-10-29T15:12:37.102Z,24.21
2023-10-29T15:15:26.515Z,24.17
2023-10-29T15:17:58.258Z,24.14
2023-10-29T15:20:27.918Z,24.05
2023-10-29T15:22:56.367Z,23.82
2023-10-29T15:25:25.882Z,23.90
2023-10-29T15:27:54.624Z,23.78
2023-10-29T15:30:23.133Z,23.61
2023-10-29T15:32:54.809Z,23.35
2023-10-29T15:35:22.934Z,23.31
2023-10-29T15:37:50.929Z,22.90
2023-10-29T15:40:19.012Z,22.92
2023-10-29T15:42:48.457Z,22.76
2023-10-29T15:45:16.757Z,22.62
2023-10-29T15:47:44.753Z,22.44
2023-10-29T15:50:14.046Z,22.46
2023-10-29T15:52:42.728Z,22.40
2023-10-29T15:55:11.399Z,22.36
2023-10-29T15:57:39.625Z,22.22
2023-10-29T16:00:10.677Z,22.14
2023-10-29T16:02:38.799Z,22.02
2023-10-29T16:05:07.361Z,21.97
2023-10-29T16:07:35.477Z,21.85
2023-10-29T16:10:03.528Z,21.72
2023-10-29T16:12:31.591Z,21.64
2023-10-29T16:15:02.969Z,21.46
2023-10-29T16:17:32.682Z,21.64
2023-10-29T16:20:00.725Z,20.65
2023-10-29T16:22:28.980Z,21.63
2023-10-29T16:24:57.352Z,21.52
2023-10-29T16:27:26.631Z,21.47
2023-10-29T16:29:55.951Z,21.48
2023-10-29T16:32:27.729Z,21.34
2023-10-29T16:34:57.295Z,21.20
2023-10-29T16:37:25.389Z,20.13
2023-10-29T16:39:53.429Z,20.87
2023-10-29T16:42:21.854Z,20.21
2023-10-29T16:44:50.084Z,20.64
2023-10-29T16:47:19.069Z,20.57
2023-10-29T16:49:50.805Z,20.42
2023-10-29T16:52:20.296Z,20.27
2023-10-29T16:54:48.337Z,20.12
2023-10-29T16:57:16.553Z,20.25
2023-10-29T16:59:44.627Z,20.28
2023-10-29T17:02:12.681Z,20.18
2023-10-29T17:04:40.753Z,20.01
2023-10-29T17:07:10.639Z,19.88
2023-10-29T17:09:41.662Z,19.69
2023-10-29T17:12:10.524Z,19.53
2023-10-29T17:14:39.102Z,19.49
2023-10-29T17:17:11.993Z,18.64
2023-10-29T17:19:40.116Z,19.27
2023-10-29T17:22:08.822Z,19.24
2023-10-29T17:24:37.553Z,19.06
2023-10-29T17:27:07.247Z,18.96
2023-10-29T17:29:35.338Z,18.80
2023-10-29T17:32:03.378Z,18.76
2023-10-29T17:34:34.351Z,18.77
2023-10-29T17:37:05.195Z,18.57
2023-10-29T17:39:34.390Z,18.61
2023-10-29T17:42:02.456Z,18.52
2023-10-29T17:44:31.849Z,18.44
2023-10-29T17:46:59.983Z,18.28
2023-10-29T17:49:28.114Z,18.42
2023-10-29T17:51:56.338Z,18.47
2023-10-29T17:54:25.796Z,18.56
2023-10-29T17:56:54.014Z,18.62
2023-10-29T17:59:22.663Z,18.70
2023-10-29T18:01:52.115Z,18.58
2023-10-29T18:04:20.854Z,18.58
2023-10-29T18:06:51.388Z,18.56
2023-10-29T18:09:20.159Z,18.50
2023-10-29T18:11:48.509Z,18.27
2023-10-29T18:14:16.684Z,18.47
2023-10-29T18:16:45.146Z,18.46
2023-10-29T18:19:16.095Z,18.19
2023-10-29T18:21:44.484Z,18.25
2023-10-29T18:24:15.843Z,18.33
2023-10-29T18:26:44.085Z,18.50
2023-10-29T18:29:12.670Z,18.51
2023-10-29T18:31:40.831Z,18.52
2023-10-29T18:34:08.904Z,18.39
2023-10-29T18:36:42.299Z,18.17
2023-10-29T18:39:11.495Z,18.05
2023-10-29T18:41:39.514Z,18.02
2023-10-29T18:44:10.423Z,18.11
2023-10-29T18:46:38.512Z,18.09
2023-10-29T18:49:07.182Z,17.98
2023-10-29T18:51:37.697Z,18.02
2023-10-29T18:54:08.657Z,17.96
2023-10-29T18:56:36.943Z,17.88
2023-10-29T18:59:06.177Z,18.05
2023-10-29T19:01:34.432Z,18.09
2023-10-29T19:04:02.717Z,18.20
2023-10-29T19:06:31.284Z,18.23
2023-10-29T19:09:01.000Z,18.23
2023-10-29T19:11:34.646Z,18.18
2023-10-29T19:14:03.968Z,18.16
2023-10-29T19:16:34.547Z,17.88
2023-10-29T19:19:04.531Z,18.07
2023-10-29T19:21:34.399Z,18.06
2023-10-29T19:24:02.512Z,18.12
2023-10-29T19:26:30.730Z,17.92
2023-10-29T19:29:01.574Z,17.75
2023-10-29T19:31:29.904Z,17.56
2023-10-29T19:33:58.136Z,17.51
2023-10-29T19:36:27.347Z,17.55
2023-10-29T19:38:55.964Z,17.54
2023-10-29T19:41:24.176Z,17.37
2023-10-29T19:43:52.385Z,17.16
2023-10-29T19:46:23.456Z,17.04
2023-10-29T19:48:54.224Z,16.98
2023-10-29T19:51:24.840Z,16.93
2023-10-29T19:53:53.027Z,16.80
2023-10-29T19:56:23.458Z,16.74
2023-10-29T19:58:51.588Z,16.81
2023-10-29T20:01:23.043Z,16.77
2023-10-29T20:03:52.662Z,17.01
2023-10-29T20:06:20.883Z,17.03
2023-10-29T20:08:49.471Z,17.13
2023-10-29T20:11:18.610Z,17.07
2023-10-29T20:13:50.892Z,17.09
2023-10-29T20:16:19.144Z,17.09
2023-10-29T20:18:50.068Z,16.80
2023-10-29T20:21:20.406Z,16.70
2023-10-29T20:23:50.600Z,16.76
2023-10-29T20:26:23.134Z,16.79
2023-10-29T20:28:51.281Z,16.55
2023-10-29T20:31:20.467Z,16.70
2023-10-29T20:33:51.074Z,16.48
2023-10-29T20:36:19.854Z,16.65
2023-10-29T20:38:47.976Z,16.66
2023-10-29T20:41:16.090Z,16.58
2023-10-29T20:43:44.749Z,16.47
2023-10-29T20:46:12.872Z,16.54
2023-10-29T20:48:41.224Z,16.67
2023-10-29T20:51:10.734Z,16.59
2023-10-29T20:53:39.209Z,16.55
2023-10-29T20:56:08.401Z,16.40
2023-10-29T20:58:36.496Z,16.46
2023-10-29T21:01:05.384Z,16.35
2023-10-29T21:03:34.123Z,16.22
2023-10-29T21:06:02.521Z,16.24
2023-10-29T21:08:33.158Z,16.28
2023-10-29T21:11:06.774Z,16.06
2023-10-29T21:13:35.138Z,16.32
2023-10-29T21:16:07.186Z,16.25
2023-10-29T21:18:36.290Z,16.27
2023-10-29T21:21:04.891Z,16.07
2023-10-29T21:23:34.656Z,16.05
2023-10-29T21:26:02.640Z,16.04
2023-10-29T21:28:30.826Z,15.76
2023-10-29T21:30:59.097Z,15.91
2023-10-29T21:33:27.188Z,15.86
2023-10-29T21:35:55.611Z,15.85
2023-10-29T21:38:23.847Z,15.71
2023-10-29T21:40:54.401Z,15.65
2023-10-29T21:43:22.515Z,15.59
2023-10-29T21:45:50.618Z,15.29
2023-10-29T21:48:18.870Z,15.27
2023-10-29T21:50:55.690Z,15.30
2023-10-29T21:53:23.862Z,15.35
2023-10-29T21:55:56.483Z,15.42
2023-10-29T21:58:25.215Z,15.45
2023-10-29T22:00:54.372Z,15.40
2023-10-29T22:03:22.689Z,15.36
2023-10-29T22:05:58.647Z,15.37
2023-10-29T22:08:26.971Z,15.42
2023-10-29T22:11:00.719Z,15.44
2023-10-29T22:13:30.006Z,14.68
2023-10-29T22:16:05.736Z,15.42
2023-10-29T22:18:34.654Z,15.28
2023-10-29T22:21:04.455Z,15.26
2023-10-29T22:23:32.889Z,15.19
2023-10-29T22:26:02.860Z,15.19
2023-10-29T22:28:31.087Z,15.14
2023-10-29T22:31:00.149Z,15.07
2023-10-29T22:33:30.204Z,15.07
2023-10-29T22:35:59.188Z,15.02
2023-10-29T22:38:27.676Z,14.87
2023-10-29T22:41:04.660Z,15.13
2023-10-29T22:43:32.864Z,15.09
2023-10-29T22:46:00.987Z,14.55
2023-10-29T22:48:29.629Z,14.85
2023-10-29T22:50:58.067Z,14.72
2023-10-29T22:53:26.700Z,14.49
2023-10-29T22:55:54.677Z,14.40
2023-10-29T22:58:24.134Z,14.56
2023-10-29T23:00:52.282Z,14.49
2023-10-29T23:03:20.686Z,14.36
2023-10-29T23:05:48.757Z,14.37
2023-10-29T23:08:16.901Z,14.47
2023-10-29T23:10:44.962Z,14.65
2023-10-29T23:13:12.986Z,14.71
2023-10-29T23:15:43.417Z,14.80
2023-10-29T23:18:11.820Z,14.81
2023-10-29T23:20:42.246Z,14.92
2023-10-29T23:23:16.675Z,14.88
2023-10-29T23:25:46.029Z,14.95
2023-10-29T23:28:19.824Z,14.91
2023-10-29T23:31:00.534Z,14.84
2023-10-29T23:33:28.781Z,14.73
2023-10-29T23:35:56.856Z,14.33
2023-10-29T23:38:24.940Z,14.68
2023-10-29T23:40:52.959Z,14.84
2023-10-29T23:43:20.967Z,14.62
2023-10-29T23:45:49.144Z,14.66
2023-10-29T23:48:18.531Z,14.58
2023-10-29T23:50:46.546Z,14.33
2023-10-29T23:53:14.629Z,14.37
2023-10-29T23:55:43.154Z,14.34
2023-10-29T23:58:11.227Z,14.38
